sensor_id;sensor_type;location;lat;lon;timestamp;pressure;altitude;pressure_sealevel;temperature;humidity
73240;BME280;61452;40.054;4.110;2022-09-28T00:01:19;101276.88;;;24.32;65.81
73240;BME280;61452;40.054;4.110;2022-09-28T00:06:23;101275.88;;;24.33;65.58
73240;BME280;61452;40.054;4.110;2022-09-28T00:11:26;101267.81;;;24.33;65.45
73240;BME280;61452;40.054;4.110;2022-09-28T00:16:32;101258.94;;;24.32;65.68
73240;BME280;61452;40.054;4.110;2022-09-28T00:21:35;101250.06;;;24.32;65.69
73240;BME280;61452;40.054;4.110;2022-09-28T00:26:41;101251.91;;;24.31;65.58
73240;BME280;61452;40.054;4.110;2022-09-28T00:31:44;101242.84;;;24.32;65.57
73240;BME280;61452;40.054;4.110;2022-09-28T00:36:47;101246.38;;;24.33;65.50
73240;BME280;61452;40.054;4.110;2022-09-28T00:41:49;101240.34;;;24.31;65.48
73240;BME280;61452;40.054;4.110;2022-09-28T00:51:56;101236.66;;;24.32;65.59
73240;BME280;61452;40.054;4.110;2022-09-28T00:56:59;101231.44;;;24.30;65.56
73240;BME280;61452;40.054;4.110;2022-09-28T01:02:03;101229.75;;;24.29;65.42
73240;BME280;61452;40.054;4.110;2022-09-28T01:07:07;101229.63;;;24.31;65.48
73240;BME280;61452;40.054;4.110;2022-09-28T01:12:10;101224.25;;;24.31;65.59
73240;BME280;61452;40.054;4.110;2022-09-28T01:17:16;101215.34;;;24.30;65.35
73240;BME280;61452;40.054;4.110;2022-09-28T01:28:11;101212.69;;;24.30;65.67
73240;BME280;61452;40.054;4.110;2022-09-28T01:33:21;101202.94;;;24.29;65.36
73240;BME280;61452;40.054;4.110;2022-09-28T01:38:28;101207.31;;;24.30;65.42
73240;BME280;61452;40.054;4.110;2022-09-28T01:43:36;101196.59;;;24.30;65.62
73240;BME280;61452;40.054;4.110;2022-09-28T01:48:46;101192.22;;;24.29;65.54
73240;BME280;61452;40.054;4.110;2022-09-28T01:53:56;101184.03;;;24.31;65.41
73240;BME280;61452;40.054;4.110;2022-09-28T01:59:02;101175.28;;;24.29;65.48
73240;BME280;61452;40.054;4.110;2022-09-28T02:04:21;101171.63;;;24.30;65.47
73240;BME280;61452;40.054;4.110;2022-09-28T02:09:45;101165.41;;;24.29;65.37
73240;BME280;61452;40.054;4.110;2022-09-28T02:14:53;101152.84;;;24.30;65.63
73240;BME280;61452;40.054;4.110;2022-09-28T02:19:57;101147.47;;;24.30;65.48
73240;BME280;61452;40.054;4.110;2022-09-28T02:25:29;101133.22;;;24.29;65.42
73240;BME280;61452;40.054;4.110;2022-09-28T02:30:35;101124.34;;;24.29;65.34
73240;BME280;61452;40.054;4.110;2022-09-28T02:35:39;101126.03;;;24.30;65.29
73240;BME280;61452;40.054;4.110;2022-09-28T02:41:08;101113.63;;;24.29;65.37
73240;BME280;61452;40.054;4.110;2022-09-28T02:46:22;101109.94;;;24.30;65.25
73240;BME280;61452;40.054;4.110;2022-09-28T03:12:15;101086.94;;;24.27;65.23
73240;BME280;61452;40.054;4.110;2022-09-28T03:17:20;101084.97;;;24.29;65.12
73240;BME280;61452;40.054;4.110;2022-09-28T03:22:22;101079.91;;;24.26;65.29
73240;BME280;61452;40.054;4.110;2022-09-28T03:27:24;101079.06;;;24.26;65.29
73240;BME280;61452;40.054;4.110;2022-09-28T03:32:26;101076.38;;;24.26;65.46
73240;BME280;61452;40.054;4.110;2022-09-28T03:37:29;101077.41;;;24.25;65.62
73240;BME280;61452;40.054;4.110;2022-09-28T03:42:31;101070.19;;;24.25;65.47
73240;BME280;61452;40.054;4.110;2022-09-28T03:47:36;101072.69;;;24.27;65.30
73240;BME280;61452;40.054;4.110;2022-09-28T03:52:38;101062.16;;;24.25;65.33
73240;BME280;61452;40.054;4.110;2022-09-28T03:57:40;101060.28;;;24.26;65.01
73240;BME280;61452;40.054;4.110;2022-09-28T04:02:42;101065.84;;;24.24;65.46
73240;BME280;61452;40.054;4.110;2022-09-28T04:07:44;101056.94;;;24.24;65.32
73240;BME280;61452;40.054;4.110;2022-09-28T04:12:46;101068.50;;;24.24;65.35
73240;BME280;61452;40.054;4.110;2022-09-28T04:17:51;101059.47;;;24.25;65.34
73240;BME280;61452;40.054;4.110;2022-09-28T04:23:16;101060.47;;;24.24;64.72
73240;BME280;61452;40.054;4.110;2022-09-28T04:28:18;101064.84;;;24.25;64.88
73240;BME280;61452;40.054;4.110;2022-09-28T04:33:39;101066.69;;;24.25;64.92
73240;BME280;61452;40.054;4.110;2022-09-28T04:38:41;101041.00;;;24.22;64.90
73240;BME280;61452;40.054;4.110;2022-09-28T04:43:55;101043.06;;;24.28;64.73
73240;BME280;61452;40.054;4.110;2022-09-28T04:48:59;101038.19;;;24.24;64.55
73240;BME280;61452;40.054;4.110;2022-09-28T04:54:19;101032.66;;;24.25;63.67
73240;BME280;61452;40.054;4.110;2022-09-28T04:59:22;101039.88;;;24.25;64.17
73240;BME280;61452;40.054;4.110;2022-09-28T05:04:24;101025.44;;;24.26;64.11
73240;BME280;61452;40.054;4.110;2022-09-28T05:09:52;101030.81;;;24.26;63.74
73240;BME280;61452;40.054;4.110;2022-09-28T05:14:56;101027.31;;;24.25;64.02
73240;BME280;61452;40.054;4.110;2022-09-28T05:19:58;101030.97;;;24.24;64.24
73240;BME280;61452;40.054;4.110;2022-09-28T05:25:01;101023.78;;;24.25;64.20
73240;BME280;61452;40.054;4.110;2022-09-28T05:30:10;101023.94;;;24.23;64.35
73240;BME280;61452;40.054;4.110;2022-09-28T05:35:30;101038.19;;;24.24;64.48
73240;BME280;61452;40.054;4.110;2022-09-28T05:40:32;101027.59;;;24.22;64.38
73240;BME280;61452;40.054;4.110;2022-09-28T05:45:34;101018.56;;;24.23;64.57
73240;BME280;61452;40.054;4.110;2022-09-28T05:50:38;101019.56;;;24.22;63.84
73240;BME280;61452;40.054;4.110;2022-09-28T05:55:40;101020.25;;;24.24;64.23
73240;BME280;61452;40.054;4.110;2022-09-28T06:00:42;101017.72;;;24.23;64.38
73240;BME280;61452;40.054;4.110;2022-09-28T06:05:45;101023.09;;;24.23;64.37
73240;BME280;61452;40.054;4.110;2022-09-28T06:10:48;101021.41;;;24.22;64.26
73240;BME280;61452;40.054;4.110;2022-09-28T06:15:50;101018.88;;;24.20;64.62
73240;BME280;61452;40.054;4.110;2022-09-28T06:20:52;101018.88;;;24.20;64.74
73240;BME280;61452;40.054;4.110;2022-09-28T06:26:04;101007.59;;;24.16;64.66
73240;BME280;61452;40.054;4.110;2022-09-28T06:31:06;101003.09;;;24.17;64.97
73240;BME280;61452;40.054;4.110;2022-09-28T06:36:17;101011.41;;;24.14;65.19
73240;BME280;61452;40.054;4.110;2022-09-28T06:41:19;101006.75;;;24.16;65.23
73240;BME280;61452;40.054;4.110;2022-09-28T06:46:22;101004.22;;;24.14;64.83
73240;BME280;61452;40.054;4.110;2022-09-28T06:51:44;100995.34;;;24.14;64.75
73240;BME280;61452;40.054;4.110;2022-09-28T06:56:55;100996.19;;;24.14;64.96
73240;BME280;61452;40.054;4.110;2022-09-28T07:01:57;100987.47;;;24.12;64.93
73240;BME280;61452;40.054;4.110;2022-09-28T07:07:35;100988.13;;;24.14;64.99
73240;BME280;61452;40.054;4.110;2022-09-28T07:12:53;100985.78;;;24.11;64.90
73240;BME280;61452;40.054;4.110;2022-09-28T07:18:06;100992.66;;;24.14;64.69
73240;BME280;61452;40.054;4.110;2022-09-28T07:23:08;100987.47;;;24.12;64.25
73240;BME280;61452;40.054;4.110;2022-09-28T07:28:40;100995.19;;;24.15;64.45
73240;BME280;61452;40.054;4.110;2022-09-28T07:34:02;101003.38;;;24.14;64.35
73240;BME280;61452;40.054;4.110;2022-09-28T07:39:24;101004.41;;;24.13;64.31
73240;BME280;61452;40.054;4.110;2022-09-28T07:44:26;101006.25;;;24.12;64.22
73240;BME280;61452;40.054;4.110;2022-09-28T07:49:31;101013.44;;;24.12;64.04
73240;BME280;61452;40.054;4.110;2022-09-28T07:54:54;101013.94;;;24.15;63.60
73240;BME280;61452;40.054;4.110;2022-09-28T08:00:10;101012.59;;;24.11;63.55
73240;BME280;61452;40.054;4.110;2022-09-28T08:05:17;101016.78;;;24.14;63.28
73240;BME280;61452;40.054;4.110;2022-09-28T08:10:19;101008.75;;;24.14;63.51
73240;BME280;61452;40.054;4.110;2022-09-28T08:15:54;101004.41;;;24.13;63.45
73240;BME280;61452;40.054;4.110;2022-09-28T08:21:06;101012.44;;;24.13;63.12
73240;BME280;61452;40.054;4.110;2022-09-28T08:26:28;101007.09;;;24.13;62.90
73240;BME280;61452;40.054;4.110;2022-09-28T08:31:31;101004.41;;;24.13;63.07
73240;BME280;61452;40.054;4.110;2022-09-28T08:36:47;101014.28;;;24.12;63.07
73240;BME280;61452;40.054;4.110;2022-09-28T08:42:40;101017.09;;;24.11;63.30
73240;BME280;61452;40.054;4.110;2022-09-28T08:47:55;101022.47;;;24.11;63.07
73240;BME280;61452;40.054;4.110;2022-09-28T08:54:03;101011.91;;;24.09;62.96
73240;BME280;61452;40.054;4.110;2022-09-28T08:59:54;101020.09;;;24.08;63.50
73240;BME280;61452;40.054;4.110;2022-09-28T09:05:08;101032.81;;;24.06;63.21
73240;BME280;61452;40.054;4.110;2022-09-28T09:10:51;101021.25;;;24.05;63.63
73240;BME280;61452;40.054;4.110;2022-09-28T09:16:31;101024.09;;;24.04;63.41
73240;BME280;61452;40.054;4.110;2022-09-28T09:22:15;101044.69;;;24.03;63.50
73240;BME280;61452;40.054;4.110;2022-09-28T10:00:17;101030.91;;;23.98;64.42
73240;BME280;61452;40.054;4.110;2022-09-28T10:05:33;101032.75;;;23.98;64.41
73240;BME280;61452;40.054;4.110;2022-09-28T10:10:37;101024.84;;;23.96;65.10
73240;BME280;61452;40.054;4.110;2022-09-28T10:15:45;101028.22;;;23.98;64.82
73240;BME280;61452;40.054;4.110;2022-09-28T10:21:03;101031.75;;;23.99;65.01
73240;BME280;61452;40.054;4.110;2022-09-28T10:26:36;101022.88;;;23.98;64.96
73240;BME280;61452;40.054;4.110;2022-09-28T10:31:48;101031.75;;;23.99;64.87
73240;BME280;61452;40.054;4.110;2022-09-28T10:37:01;101008.78;;;23.96;65.01
73240;BME280;61452;40.054;4.110;2022-09-28T10:42:37;101025.41;;;24.00;65.08
73240;BME280;61452;40.054;4.110;2022-09-28T10:47:42;101020.88;;;24.00;64.93
73240;BME280;61452;40.054;4.110;2022-09-28T10:52:47;101010.31;;;23.99;65.04
73240;BME280;61452;40.054;4.110;2022-09-28T10:58:27;101004.97;;;23.99;64.88
73240;BME280;61452;40.054;4.110;2022-09-28T11:03:30;101014.69;;;24.00;65.17
73240;BME280;61452;40.054;4.110;2022-09-28T11:08:41;101008.34;;;24.01;65.05
73240;BME280;61452;40.054;4.110;2022-09-28T11:13:52;101012.16;;;23.98;64.81
73240;BME280;61452;40.054;4.110;2022-09-28T11:19:21;101008.47;;;23.99;64.79
73240;BME280;61452;40.054;4.110;2022-09-28T11:24:27;100990.38;;;24.01;64.91
73240;BME280;61452;40.054;4.110;2022-09-28T11:29:43;100994.94;;;24.01;64.92
73240;BME280;61452;40.054;4.110;2022-09-28T11:35:16;100980.69;;;24.00;65.38
73240;BME280;61452;40.054;4.110;2022-09-28T11:51:30;100965.47;;;24.01;64.85
73240;BME280;61452;40.054;4.110;2022-09-28T11:56:37;100957.22;;;24.02;65.26
73240;BME280;61452;40.054;4.110;2022-09-28T12:01:46;100960.75;;;24.03;65.20
73240;BME280;61452;40.054;4.110;2022-09-28T12:07:10;100950.19;;;24.01;65.64
73240;BME280;61452;40.054;4.110;2022-09-28T12:17:42;100915.84;;;23.97;65.41
73240;BME280;61452;40.054;4.110;2022-09-28T12:22:59;100931.13;;;24.04;65.61
73240;BME280;61452;40.054;4.110;2022-09-28T12:28:07;100916.88;;;24.04;65.64
73240;BME280;61452;40.054;4.110;2022-09-28T12:33:14;100932.66;;;24.07;65.75
73240;BME280;61452;40.054;4.110;2022-09-28T12:59:41;100871.03;;;24.07;66.13
73240;BME280;61452;40.054;4.110;2022-09-28T13:10:49;100871.84;;;24.07;65.69
73240;BME280;61452;40.054;4.110;2022-09-28T13:16:06;100865.81;;;24.05;65.76
73240;BME280;61452;40.054;4.110;2022-09-28T13:21:21;100866.47;;;24.07;65.75
73240;BME280;61452;40.054;4.110;2022-09-28T13:26:35;100875.22;;;24.09;66.16
73240;BME280;61452;40.054;4.110;2022-09-28T13:31:50;100881.41;;;24.10;66.22
73240;BME280;61452;40.054;4.110;2022-09-28T13:37:19;100850.38;;;24.07;66.10
73240;BME280;61452;40.054;4.110;2022-09-28T13:47:55;100852.78;;;24.10;66.02
73240;BME280;61452;40.054;4.110;2022-09-28T13:53:06;100876.06;;;24.10;65.92
73240;BME280;61452;40.054;4.110;2022-09-28T14:19:21;100833.50;;;24.07;65.51
73240;BME280;61452;40.054;4.110;2022-09-28T14:24:40;100840.50;;;24.08;65.51
73240;BME280;61452;40.054;4.110;2022-09-28T14:29:48;100855.59;;;24.09;65.19
73240;BME280;61452;40.054;4.110;2022-09-28T14:35:00;100844.72;;;24.10;65.12
73240;BME280;61452;40.054;4.110;2022-09-28T14:40:15;100841.06;;;24.11;65.32
73240;BME280;61452;40.054;4.110;2022-09-28T14:45:36;100820.44;;;24.12;65.34
73240;BME280;61452;40.054;4.110;2022-09-28T14:50:39;100814.09;;;24.13;65.56
73240;BME280;61452;40.054;4.110;2022-09-28T14:55:49;100824.97;;;24.11;65.49
73240;BME280;61452;40.054;4.110;2022-09-28T15:01:00;100829.50;;;24.11;64.91
73240;BME280;61452;40.054;4.110;2022-09-28T15:06:03;100800.84;;;24.11;64.29
73240;BME280;61452;40.054;4.110;2022-09-28T15:11:11;100784.75;;;24.11;64.18
73240;BME280;61452;40.054;4.110;2022-09-28T15:16:16;100788.28;;;24.12;64.45
73240;BME280;61452;40.054;4.110;2022-09-28T15:21:18;100794.81;;;24.09;64.17
73240;BME280;61452;40.054;4.110;2022-09-28T15:26:28;100776.88;;;24.10;63.89
73240;BME280;61452;40.054;4.110;2022-09-28T15:31:34;100759.81;;;24.11;64.30
73240;BME280;61452;40.054;4.110;2022-09-28T15:36:40;100762.34;;;24.12;64.28
73240;BME280;61452;40.054;4.110;2022-09-28T15:41:45;100760.31;;;24.14;64.36
73240;BME280;61452;40.054;4.110;2022-09-28T15:46:48;100768.53;;;24.13;64.36
73240;BME280;61452;40.054;4.110;2022-09-28T15:51:53;100759.47;;;24.14;64.58
73240;BME280;61452;40.054;4.110;2022-09-28T15:57:00;100765.84;;;24.13;64.27
73240;BME280;61452;40.054;4.110;2022-09-28T16:02:18;100769.53;;;24.12;63.73
73240;BME280;61452;40.054;4.110;2022-09-28T16:07:39;100758.81;;;24.12;64.01
73240;BME280;61452;40.054;4.110;2022-09-28T16:12:45;100764.66;;;24.15;63.93
73240;BME280;61452;40.054;4.110;2022-09-28T16:22:54;100749.78;;;24.13;63.95
73240;BME280;61452;40.054;4.110;2022-09-28T16:27:57;100745.22;;;24.13;63.34
73240;BME280;61452;40.054;4.110;2022-09-28T16:33:03;100735.34;;;24.14;63.89
73240;BME280;61452;40.054;4.110;2022-09-28T16:38:11;100737.53;;;24.10;62.50
73240;BME280;61452;40.054;4.110;2022-09-28T16:43:28;100728.47;;;24.11;62.28
73240;BME280;61452;40.054;4.110;2022-09-28T16:48:34;100725.81;;;24.11;61.43
73240;BME280;61452;40.054;4.110;2022-09-28T16:53:38;100732.84;;;24.12;61.62
73240;BME280;61452;40.054;4.110;2022-09-28T16:58:58;100724.97;;;24.11;61.59
73240;BME280;61452;40.054;4.110;2022-09-28T17:04:01;100723.13;;;24.11;61.64
73240;BME280;61452;40.054;4.110;2022-09-28T17:09:04;100717.59;;;24.13;61.02
73240;BME280;61452;40.054;4.110;2022-09-28T17:14:07;100730.16;;;24.12;60.88
73240;BME280;61452;40.054;4.110;2022-09-28T17:19:22;100727.63;;;24.11;60.83
73240;BME280;61452;40.054;4.110;2022-09-28T17:24:24;100739.84;;;24.13;60.98
73240;BME280;61452;40.054;4.110;2022-09-28T17:29:26;100737.03;;;24.15;59.94
73240;BME280;61452;40.054;4.110;2022-09-28T17:34:28;100735.34;;;24.14;60.66
73240;BME280;61452;40.054;4.110;2022-09-28T17:39:30;100732.66;;;24.14;60.99
73240;BME280;61452;40.054;4.110;2022-09-28T17:44:32;100737.03;;;24.15;60.74
73240;BME280;61452;40.054;4.110;2022-09-28T17:49:35;100742.38;;;24.15;60.97
73240;BME280;61452;40.054;4.110;2022-09-28T17:54:39;100745.06;;;24.15;60.90
73240;BME280;61452;40.054;4.110;2022-09-28T17:59:41;100744.22;;;24.14;61.54
73240;BME280;61452;40.054;4.110;2022-09-28T18:04:43;100751.25;;;24.15;60.95
73240;BME280;61452;40.054;4.110;2022-09-28T18:10:19;100744.06;;;24.16;61.23
73240;BME280;61452;40.054;4.110;2022-09-28T18:15:25;100753.09;;;24.15;61.24
73240;BME280;61452;40.054;4.110;2022-09-28T18:20:27;100759.47;;;24.14;61.11
73240;BME280;61452;40.054;4.110;2022-09-28T18:25:30;100755.78;;;24.15;61.15
73240;BME280;61452;40.054;4.110;2022-09-28T18:30:32;100744.22;;;24.14;61.72
73240;BME280;61452;40.054;4.110;2022-09-28T18:35:35;100758.31;;;24.16;62.08
73240;BME280;61452;40.054;4.110;2022-09-28T18:40:37;100760.31;;;24.14;61.84
73240;BME280;61452;40.054;4.110;2022-09-28T18:45:39;100752.09;;;24.16;62.48
73240;BME280;61452;40.054;4.110;2022-09-28T18:50:41;100759.88;;;24.19;62.62
73240;BME280;61452;40.054;4.110;2022-09-28T18:55:44;100754.63;;;24.17;62.50
73240;BME280;61452;40.054;4.110;2022-09-28T19:00:46;100761.84;;;24.17;62.11
73240;BME280;61452;40.054;4.110;2022-09-28T19:05:48;100752.78;;;24.18;62.18
73240;BME280;61452;40.054;4.110;2022-09-28T19:10:50;100751.13;;;24.17;61.47
73240;BME280;61452;40.054;4.110;2022-09-28T19:15:52;100762.69;;;24.17;61.64
73240;BME280;61452;40.054;4.110;2022-09-28T19:20:54;100765.34;;;24.17;61.37
73240;BME280;61452;40.054;4.110;2022-09-28T19:25:56;100766.03;;;24.19;61.07
73240;BME280;61452;40.054;4.110;2022-09-28T19:31:00;100762.22;;;24.22;60.47
73240;BME280;61452;40.054;4.110;2022-09-28T19:36:11;100774.09;;;24.19;60.48
73240;BME280;61452;40.054;4.110;2022-09-28T19:41:16;100780.28;;;24.20;60.47
73240;BME280;61452;40.054;4.110;2022-09-28T19:46:42;100784.50;;;24.23;60.51
73240;BME280;61452;40.054;4.110;2022-09-28T19:51:45;100786.19;;;24.24;60.20
73240;BME280;61452;40.054;4.110;2022-09-28T19:57:12;100787.88;;;24.25;60.50
73240;BME280;61452;40.054;4.110;2022-09-28T20:02:16;100788.03;;;24.23;60.46
73240;BME280;61452;40.054;4.110;2022-09-28T20:07:19;100787.34;;;24.21;60.75
73240;BME280;61452;40.054;4.110;2022-09-28T20:12:21;100786.69;;;24.19;60.77
73240;BME280;61452;40.054;4.110;2022-09-28T20:17:23;100780.47;;;24.18;62.00
73240;BME280;61452;40.054;4.110;2022-09-28T20:22:25;100774.78;;;24.22;62.88
73240;BME280;61452;40.054;4.110;2022-09-28T20:27:27;100774.94;;;24.20;62.76
73240;BME280;61452;40.054;4.110;2022-09-28T20:32:31;100778.63;;;24.19;62.86
73240;BME280;61452;40.054;4.110;2022-09-28T20:37:33;100781.31;;;24.19;62.99
73240;BME280;61452;40.054;4.110;2022-09-28T20:42:36;100784.81;;;24.19;62.98
73240;BME280;61452;40.054;4.110;2022-09-28T20:47:38;100784.13;;;24.17;63.34
73240;BME280;61452;40.054;4.110;2022-09-28T20:52:41;100789.47;;;24.17;63.42
73240;BME280;61452;40.054;4.110;2022-09-28T20:57:43;100790.31;;;24.18;63.23
73240;BME280;61452;40.054;4.110;2022-09-28T21:02:50;100793.00;;;24.18;63.40
73240;BME280;61452;40.054;4.110;2022-09-28T21:07:52;100769.84;;;24.09;63.41
73240;BME280;61452;40.054;4.110;2022-09-28T21:12:54;100786.81;;;24.17;63.32
73240;BME280;61452;40.054;4.110;2022-09-28T21:17:56;100780.59;;;24.17;63.75
73240;BME280;61452;40.054;4.110;2022-09-28T21:22:58;100773.56;;;24.16;63.68
73240;BME280;61452;40.054;4.110;2022-09-28T21:28:00;100763.66;;;24.16;63.48
73240;BME280;61452;40.054;4.110;2022-09-28T21:33:02;100772.72;;;24.15;63.55
73240;BME280;61452;40.054;4.110;2022-09-28T21:38:04;100778.06;;;24.15;63.80
73240;BME280;61452;40.054;4.110;2022-09-28T21:43:06;100768.69;;;24.11;63.74
73240;BME280;61452;40.054;4.110;2022-09-28T21:48:08;100773.56;;;24.16;63.93
73240;BME280;61452;40.054;4.110;2022-09-28T21:53:10;100764.66;;;24.15;63.77
73240;BME280;61452;40.054;4.110;2022-09-28T21:58:12;100765.50;;;24.16;64.10
73240;BME280;61452;40.054;4.110;2022-09-28T22:03:14;100773.56;;;24.16;63.93
73240;BME280;61452;40.054;4.110;2022-09-28T22:08:18;100744.88;;;24.08;63.89
73240;BME280;61452;40.054;4.110;2022-09-28T22:13:20;100757.47;;;24.16;64.21
73240;BME280;61452;40.054;4.110;2022-09-28T22:18:25;100758.47;;;24.15;63.89
73240;BME280;61452;40.054;4.110;2022-09-28T22:23:28;100762.97;;;24.14;63.91
73240;BME280;61452;40.054;4.110;2022-09-28T22:28:30;100760.00;;;24.17;63.79
73240;BME280;61452;40.054;4.110;2022-09-28T22:33:33;100765.50;;;24.16;63.11
73240;BME280;61452;40.054;4.110;2022-09-28T22:38:35;100755.47;;;24.18;62.96
73240;BME280;61452;40.054;4.110;2022-09-28T22:43:38;100751.81;;;24.19;62.52
73240;BME280;61452;40.054;4.110;2022-09-28T22:48:40;100741.09;;;24.19;62.88
73240;BME280;61452;40.054;4.110;2022-09-28T22:53:45;100742.06;;;24.18;63.22
73240;BME280;61452;40.054;4.110;2022-09-28T22:58:47;100736.72;;;24.18;63.32
73240;BME280;61452;40.054;4.110;2022-09-28T23:03:51;100725.16;;;24.17;63.21
73240;BME280;61452;40.054;4.110;2022-09-28T23:08:53;100715.28;;;24.18;63.67
73240;BME280;61452;40.054;4.110;2022-09-28T23:13:57;100709.22;;;24.16;63.79
73240;BME280;61452;40.054;4.110;2022-09-28T23:18:59;100705.53;;;24.17;63.69
73240;BME280;61452;40.054;4.110;2022-09-28T23:24:02;100698.66;;;24.14;63.70
73240;BME280;61452;40.054;4.110;2022-09-28T23:29:04;100700.50;;;24.14;63.84
73240;BME280;61452;40.054;4.110;2022-09-28T23:34:08;100699.50;;;24.15;63.89
73240;BME280;61452;40.054;4.110;2022-09-28T23:39:11;100687.09;;;24.14;64.17
73240;BME280;61452;40.054;4.110;2022-09-28T23:44:13;100685.25;;;24.14;64.19
73240;BME280;61452;40.054;4.110;2022-09-28T23:49:15;100677.22;;;24.14;64.05
73240;BME280;61452;40.054;4.110;2022-09-28T23:54:17;100673.69;;;24.14;64.26
73240;BME280;61452;40.054;4.110;2022-09-28T23:59:19;100662.13;;;24.13;64.21
